Time,TemperatureF,DewpointF,PressureIn,WindDirection,WindDirectionDegrees,WindSpeedMPH,WindSpeedGustMPH,Humidity,HourlyPrecipIn,Conditions,Clouds,dailyrainin,SolarRadiationWatts/m^2,SoftwareType,DateUTC
2013-05-29 00:01:00,55.0,41.0,-100.00,NE,47,2.0,6.0,58,0.00,,,0.00,1.000000,,2013-05-29 07:01:00,
2013-05-29 00:34:00,56.0,40.0,-100.00,NNE,25,2.0,6.0,55,0.00,,,0.00,1.000000,,2013-05-29 07:34:00,
2013-05-29 00:42:00,56.0,40.0,-100.00,NNE,25,2.0,6.0,55,0.00,,,0.00,1.000000,,2013-05-29 07:42:00,
2013-05-29 00:52:00,56.0,40.0,-100.00,NNE,25,2.0,6.0,55,0.00,,,0.00,1.000000,,2013-05-29 07:52:00,
2013-05-29 01:02:00,56.0,40.0,-100.00,NNE,25,2.0,6.0,55,0.00,,,0.00,1.000000,,2013-05-29 08:02:00,
2013-05-29 01:32:00,51.0,45.0,-100.00,WSW,251,5.0,9.0,79,0.04,,,0.04,1.000000,,2013-05-29 08:32:00,
2013-05-29 01:42:00,51.0,45.0,-100.00,WSW,251,5.0,9.0,79,0.04,,,0.04,1.000000,,2013-05-29 08:42:00,
2013-05-29 01:52:00,51.0,45.0,-100.00,WSW,251,5.0,9.0,79,0.04,,,0.04,1.000000,,2013-05-29 08:52:00,
2013-05-29 02:01:00,51.0,45.0,-100.00,WSW,251,5.0,9.0,79,0.04,,,0.04,1.000000,,2013-05-29 09:01:00,
2013-05-29 02:33:00,50.0,47.0,-100.00,SSW,204,2.0,5.0,91,0.05,,,0.09,1.000000,,2013-05-29 09:33:00,
2013-05-29 02:42:00,50.0,47.0,-100.00,SSW,204,2.0,5.0,91,0.05,,,0.09,1.000000,,2013-05-29 09:42:00,
2013-05-29 02:52:00,50.0,47.0,-100.00,SSW,204,2.0,5.0,91,0.05,,,0.09,1.000000,,2013-05-29 09:52:00,
2013-05-29 03:02:00,50.0,47.0,-100.00,SSW,204,2.0,5.0,91,0.05,,,0.09,1.000000,,2013-05-29 10:02:00,
2013-05-29 03:33:00,50.0,48.0,-100.00,South,177,4.0,6.0,92,0.01,,,0.10,1.000000,,2013-05-29 10:33:00,
2013-05-29 03:42:00,50.0,48.0,-100.00,South,177,4.0,6.0,92,0.01,,,0.10,1.000000,,2013-05-29 10:42:00,
2013-05-29 03:53:00,50.0,48.0,-100.00,South,177,4.0,6.0,92,0.01,,,0.10,1.000000,,2013-05-29 10:53:00,
2013-05-29 04:02:00,50.0,48.0,-100.00,South,177,4.0,6.0,92,0.01,,,0.10,1.000000,,2013-05-29 11:02:00,
2013-05-29 04:32:00,50.0,48.0,-100.00,SW,228,3.0,5.0,93,0.01,,,0.11,1.000000,,2013-05-29 11:32:00,
2013-05-29 04:42:00,50.0,48.0,-100.00,SW,228,3.0,5.0,93,0.01,,,0.11,1.000000,,2013-05-29 11:42:00,
2013-05-29 04:52:00,50.0,48.0,-100.00,SW,228,3.0,5.0,93,0.01,,,0.11,1.000000,,2013-05-29 11:52:00,
2013-05-29 05:01:00,50.0,48.0,-100.00,SW,228,3.0,5.0,93,0.01,,,0.11,1.000000,,2013-05-29 12:01:00,
2013-05-29 05:32:00,49.0,47.0,-100.00,NNE,20,0.0,4.0,94,0.01,,,0.12,1.000000,,2013-05-29 12:32:00,
2013-05-29 05:42:00,49.0,47.0,-100.00,NNE,20,0.0,4.0,94,0.01,,,0.12,1.000000,,2013-05-29 12:42:00,
2013-05-29 05:52:00,49.0,47.0,-100.00,NNE,20,0.0,4.0,94,0.01,,,0.12,1.000000,,2013-05-29 12:52:00,
2013-05-29 06:01:00,49.0,47.0,-100.00,NNE,20,0.0,4.0,94,0.01,,,0.12,1.000000,,2013-05-29 13:01:00,
2013-05-29 06:32:00,49.0,48.0,-100.00,NNW,335,3.0,7.0,96,0.00,,,0.12,8.000000,,2013-05-29 13:32:00,
2013-05-29 06:42:00,49.0,48.0,-100.00,NNW,335,3.0,7.0,96,0.00,,,0.12,8.000000,,2013-05-29 13:42:00,
2013-05-29 06:53:00,49.0,48.0,-100.00,NNW,335,3.0,7.0,96,0.00,,,0.12,8.000000,,2013-05-29 13:53:00,
2013-05-29 07:01:00,49.0,48.0,-100.00,NNW,335,3.0,7.0,96,0.00,,,0.12,8.000000,,2013-05-29 14:01:00,
2013-05-29 07:32:00,53.0,50.0,-100.00,NW,323,1.0,6.0,88,0.00,,,0.12,139.000000,,2013-05-29 14:32:00,
2013-05-29 07:42:00,53.0,50.0,-100.00,NW,323,1.0,6.0,88,0.00,,,0.12,139.000000,,2013-05-29 14:42:00,
2013-05-29 07:52:00,53.0,50.0,-100.00,NW,323,1.0,6.0,88,0.00,,,0.12,139.000000,,2013-05-29 14:52:00,
2013-05-29 08:01:00,53.0,50.0,-100.00,NW,323,1.0,6.0,88,0.00,,,0.12,139.000000,,2013-05-29 15:01:00,
2013-05-29 08:33:00,56.0,48.0,-100.00,SSW,200,11.0,15.0,74,0.00,,,0.12,129.000000,,2013-05-29 15:33:00,
2013-05-29 08:42:00,56.0,48.0,-100.00,SSW,200,11.0,15.0,74,0.00,,,0.12,129.000000,,2013-05-29 15:42:00,
2013-05-29 08:53:00,56.0,48.0,-100.00,SSW,200,11.0,15.0,74,0.00,,,0.12,129.000000,,2013-05-29 15:53:00,
2013-05-29 09:03:00,56.0,48.0,-100.00,SSW,200,11.0,15.0,74,0.00,,,0.12,129.000000,,2013-05-29 16:03:00,
2013-05-29 09:33:00,59.0,44.0,-100.00,SW,222,10.0,19.0,58,0.00,,,0.12,238.000000,,2013-05-29 16:33:00,
2013-05-29 09:42:00,59.0,44.0,-100.00,SW,222,10.0,19.0,58,0.00,,,0.12,238.000000,,2013-05-29 16:42:00,
2013-05-29 09:52:00,59.0,44.0,-100.00,SW,222,10.0,19.0,58,0.00,,,0.12,238.000000,,2013-05-29 16:52:00,
2013-05-29 10:02:00,59.0,44.0,-100.00,SW,222,10.0,19.0,58,0.00,,,0.12,238.000000,,2013-05-29 17:02:00,
2013-05-29 10:32:00,61.0,44.0,-100.00,West,281,9.0,18.0,53,0.00,,,0.12,345.000000,,2013-05-29 17:32:00,
2013-05-29 10:42:00,61.0,44.0,-100.00,West,281,9.0,18.0,53,0.00,,,0.12,345.000000,,2013-05-29 17:42:00,
2013-05-29 10:52:00,61.0,44.0,-100.00,West,281,9.0,18.0,53,0.00,,,0.12,345.000000,,2013-05-29 17:52:00,
2013-05-29 11:01:00,61.0,44.0,-100.00,West,281,9.0,18.0,53,0.00,,,0.12,345.000000,,2013-05-29 18:01:00,
2013-05-29 11:32:00,62.0,41.0,-100.00,WSW,257,12.0,22.0,46,0.00,,,0.12,371.000000,,2013-05-29 18:32:00,
2013-05-29 11:42:00,62.0,41.0,-100.00,WSW,257,12.0,22.0,46,0.00,,,0.12,371.000000,,2013-05-29 18:42:00,
2013-05-29 11:52:00,62.0,41.0,-100.00,WSW,257,12.0,22.0,46,0.00,,,0.12,371.000000,,2013-05-29 18:52:00,
2013-05-29 12:01:00,62.0,41.0,-100.00,WSW,257,12.0,22.0,46,0.00,,,0.12,371.000000,,2013-05-29 19:01:00,
2013-05-29 12:32:00,62.0,39.0,-100.00,WSW,240,6.0,18.0,42,0.00,,,0.12,309.000000,,2013-05-29 19:32:00,
2013-05-29 12:44:00,62.0,39.0,-100.00,WSW,240,6.0,18.0,42,0.00,,,0.12,309.000000,,2013-05-29 19:44:00,
2013-05-29 12:53:00,62.0,39.0,-100.00,WSW,240,6.0,18.0,42,0.00,,,0.12,309.000000,,2013-05-29 19:53:00,
2013-05-29 13:02:00,62.0,39.0,-100.00,WSW,240,6.0,18.0,42,0.00,,,0.12,309.000000,,2013-05-29 20:02:00,
2013-05-29 13:33:00,66.0,40.0,-100.00,SW,216,10.0,19.0,38,0.00,,,0.12,768.000000,,2013-05-29 20:33:00,
2013-05-29 13:42:00,66.0,40.0,-100.00,SW,216,10.0,19.0,38,0.00,,,0.12,768.000000,,2013-05-29 20:42:00,
2013-05-29 13:52:00,66.0,40.0,-100.00,SW,216,10.0,19.0,38,0.00,,,0.12,768.000000,,2013-05-29 20:52:00,
2013-05-29 14:02:00,66.0,40.0,-100.00,SW,216,10.0,19.0,38,0.00,,,0.12,768.000000,,2013-05-29 21:02:00,
2013-05-29 14:33:00,63.0,36.0,-100.00,SSW,213,12.0,19.0,36,0.00,,,0.12,679.000000,,2013-05-29 21:33:00,
2013-05-29 14:44:00,63.0,36.0,-100.00,SSW,213,12.0,19.0,36,0.00,,,0.12,679.000000,,2013-05-29 21:44:00,
2013-05-29 14:53:00,63.0,36.0,-100.00,SSW,213,12.0,19.0,36,0.00,,,0.12,679.000000,,2013-05-29 21:53:00,
2013-05-29 15:03:00,63.0,36.0,-100.00,SSW,213,12.0,19.0,36,0.00,,,0.12,679.000000,,2013-05-29 22:03:00,
2013-05-29 15:34:00,63.0,38.0,-100.00,NNW,331,10.0,22.0,39,0.00,,,0.12,288.000000,,2013-05-29 22:34:00,
2013-05-29 15:42:00,63.0,38.0,-100.00,NNW,331,10.0,22.0,39,0.00,,,0.12,288.000000,,2013-05-29 22:42:00,
2013-05-29 15:53:00,63.0,38.0,-100.00,NNW,331,10.0,22.0,39,0.00,,,0.12,288.000000,,2013-05-29 22:53:00,
2013-05-29 16:02:00,63.0,38.0,-100.00,NNW,331,10.0,22.0,39,0.00,,,0.12,288.000000,,2013-05-29 23:02:00,
2013-05-29 16:33:00,65.0,38.0,-100.00,NW,315,10.0,19.0,37,0.00,,,0.12,481.000000,,2013-05-29 23:33:00,
2013-05-29 16:42:00,65.0,38.0,-100.00,NW,315,10.0,19.0,37,0.00,,,0.12,481.000000,,2013-05-29 23:42:00,
2013-05-29 16:53:00,65.0,38.0,-100.00,NW,315,10.0,19.0,37,0.00,,,0.12,481.000000,,2013-05-29 23:53:00,
2013-05-29 17:01:00,65.0,38.0,-100.00,NW,315,10.0,19.0,37,0.00,,,0.12,481.000000,,2013-05-30 00:01:00,
2013-05-29 17:32:00,62.0,37.0,-100.00,NW,322,9.0,21.0,40,0.00,,,-99.99,281.000000,,2013-05-30 00:32:00,
2013-05-29 17:42:00,62.0,37.0,-100.00,NW,322,9.0,21.0,40,0.00,,,-99.99,281.000000,,2013-05-30 00:42:00,
2013-05-29 17:52:00,62.0,37.0,-100.00,NW,322,9.0,21.0,40,0.00,,,-99.99,281.000000,,2013-05-30 00:52:00,
2013-05-29 18:01:00,62.0,37.0,-100.00,NW,322,9.0,21.0,40,0.00,,,-99.99,281.000000,,2013-05-30 01:01:00,
2013-05-29 18:32:00,59.0,39.0,-100.00,WNW,286,9.0,18.0,47,0.00,,,0.12,121.000000,,2013-05-30 01:32:00,
2013-05-29 18:42:00,59.0,39.0,-100.00,WNW,286,9.0,18.0,47,0.00,,,0.12,121.000000,,2013-05-30 01:42:00,
2013-05-29 18:52:00,59.0,39.0,-100.00,WNW,286,9.0,18.0,47,0.00,,,0.12,121.000000,,2013-05-30 01:52:00,
2013-05-29 19:01:00,59.0,39.0,-100.00,WNW,286,9.0,18.0,47,0.00,,,0.12,121.000000,,2013-05-30 02:01:00,
2013-05-29 19:32:00,57.0,41.0,-100.00,NNW,336,5.0,15.0,55,0.00,,,0.12,109.000000,,2013-05-30 02:32:00,
2013-05-29 19:42:00,57.0,41.0,-100.00,NNW,336,5.0,15.0,55,0.00,,,0.12,109.000000,,2013-05-30 02:42:00,
2013-05-29 19:52:00,57.0,41.0,-100.00,NNW,336,5.0,15.0,55,0.00,,,0.12,109.000000,,2013-05-30 02:52:00,
2013-05-29 20:01:00,57.0,41.0,-100.00,NNW,336,5.0,15.0,55,0.00,,,0.12,109.000000,,2013-05-30 03:01:00,
2013-05-29 20:33:00,56.0,41.0,-100.00,NNW,343,6.0,16.0,56,0.01,,,0.13,24.000000,,2013-05-30 03:33:00,
2013-05-29 20:43:00,56.0,41.0,-100.00,NNW,343,6.0,16.0,56,0.01,,,0.13,24.000000,,2013-05-30 03:43:00,
2013-05-29 20:53:00,56.0,41.0,-100.00,NNW,343,6.0,16.0,56,0.01,,,0.13,24.000000,,2013-05-30 03:53:00,
2013-05-29 21:02:00,56.0,41.0,-100.00,NNW,343,6.0,16.0,56,0.01,,,0.13,24.000000,,2013-05-30 04:02:00,
2013-05-29 21:33:00,55.0,40.0,-100.00,WNW,298,3.0,11.0,57,0.00,,,0.13,3.000000,,2013-05-30 04:33:00,
2013-05-29 21:42:00,55.0,40.0,-100.00,WNW,298,3.0,11.0,57,0.00,,,0.13,3.000000,,2013-05-30 04:42:00,
2013-05-29 21:53:00,55.0,40.0,-100.00,WNW,298,3.0,11.0,57,0.00,,,0.13,3.000000,,2013-05-30 04:53:00,
2013-05-29 22:02:00,55.0,40.0,-100.00,WNW,298,3.0,11.0,57,0.00,,,0.13,3.000000,,2013-05-30 05:02:00,
2013-05-29 22:32:00,51.0,40.0,-100.00,NNE,12,4.0,9.0,65,0.01,,,0.14,1.000000,,2013-05-30 05:32:00,
2013-05-29 22:42:00,51.0,40.0,-100.00,NNE,12,4.0,9.0,65,0.01,,,0.14,1.000000,,2013-05-30 05:42:00,
2013-05-29 22:52:00,51.0,40.0,-100.00,NNE,12,4.0,9.0,65,0.01,,,0.14,1.000000,,2013-05-30 05:52:00,
2013-05-29 23:01:00,51.0,40.0,-100.00,NNE,12,4.0,9.0,65,0.01,,,0.14,1.000000,,2013-05-30 06:01:00,
2013-05-29 23:32:00,49.0,43.0,-100.00,South,181,1.0,7.0,79,0.00,,,0.14,1.000000,,2013-05-30 06:32:00,
2013-05-29 23:42:00,49.0,43.0,-100.00,South,181,1.0,7.0,79,0.00,,,0.14,1.000000,,2013-05-30 06:42:00,
2013-05-29 23:52:00,49.0,43.0,-100.00,South,181,1.0,7.0,79,0.00,,,0.14,1.000000,,2013-05-30 06:52:00,